createdAt,value
2017-10-04T00:00:43.897Z,58.40
2017-10-04T00:03:11.358Z,58.50
2017-10-04T00:05:38.813Z,58.40
2017-10-04T00:08:06.272Z,58.40
2017-10-04T00:10:33.739Z,58.50
2017-10-04T00:13:01.191Z,58.60
2017-10-04T00:15:28.634Z,58.20
2017-10-04T00:17:56.104Z,58.50
2017-10-04T00:20:23.545Z,58.30
2017-10-04T00:22:51.000Z,58.40
2017-10-04T00:25:18.447Z,58.40
2017-10-04T00:27:45.975Z,58.90
2017-10-04T00:30:14.189Z,58.70
2017-10-04T00:32:42.413Z,58.80
2017-10-04T00:35:09.862Z,58.80
2017-10-04T00:37:37.314Z,59.10
2017-10-04T00:40:04.769Z,59.00
2017-10-04T00:42:32.418Z,58.80
2017-10-04T00:44:59.870Z,59.10
2017-10-04T00:47:27.342Z,59.10
2017-10-04T00:49:54.789Z,58.70
2017-10-04T00:52:22.258Z,58.50
2017-10-04T00:54:49.737Z,58.60
2017-10-04T00:57:17.205Z,58.60
2017-10-04T00:59:44.657Z,58.60
2017-10-04T01:02:12.883Z,58.80
2017-10-04T01:04:40.337Z,58.70
2017-10-04T01:07:07.807Z,58.60
2017-10-04T01:09:35.296Z,58.80
2017-10-04T01:12:03.529Z,58.60
2017-10-04T01:14:30.989Z,58.60
2017-10-04T01:16:58.444Z,58.90
2017-10-04T01:19:25.897Z,59.30
2017-10-04T01:21:53.365Z,59.30
2017-10-04T01:24:20.818Z,59.40
2017-10-04T01:26:48.265Z,59.60
2017-10-04T01:29:15.725Z,59.50
2017-10-04T01:31:43.190Z,59.00
2017-10-04T01:34:10.647Z,58.90
2017-10-04T01:36:38.094Z,58.70
2017-10-04T01:39:05.571Z,59.00
2017-10-04T01:41:38.946Z,58.70
2017-10-04T01:44:06.637Z,58.80
2017-10-04T01:46:34.074Z,58.60
2017-10-04T01:49:01.537Z,59.00
2017-10-04T01:51:28.986Z,59.00
2017-10-04T01:53:56.442Z,59.10
2017-10-04T01:56:23.906Z,58.90
2017-10-04T01:58:51.363Z,59.10
2017-10-04T02:01:18.819Z,59.10
2017-10-04T02:03:46.275Z,59.30
2017-10-04T02:06:13.733Z,59.00
2017-10-04T02:08:41.194Z,59.50
2017-10-04T02:11:08.645Z,59.50
2017-10-04T02:13:36.103Z,59.40
2017-10-04T02:16:03.563Z,59.50
2017-10-04T02:18:31.009Z,59.60
2017-10-04T02:20:58.466Z,60.00
2017-10-04T02:23:25.926Z,60.10
2017-10-04T02:25:53.385Z,59.60
2017-10-04T02:28:20.839Z,59.90
2017-10-04T02:30:48.362Z,59.90
2017-10-04T02:33:15.819Z,59.70
2017-10-04T02:35:44.041Z,60.40
2017-10-04T02:38:11.507Z,60.40
2017-10-04T02:40:38.978Z,60.70
2017-10-04T02:43:07.942Z,60.90
2017-10-04T02:45:35.397Z,60.80
2017-10-04T02:48:02.850Z,60.40
2017-10-04T02:50:30.315Z,60.50
2017-10-04T02:52:57.774Z,60.60
2017-10-04T02:55:25.243Z,60.40
2017-10-04T02:57:52.693Z,60.50
2017-10-04T03:00:20.194Z,60.40
2017-10-04T03:02:48.432Z,60.80
2017-10-04T03:05:15.914Z,60.80
2017-10-04T03:07:44.890Z,60.30
2017-10-04T03:10:12.346Z,60.20
2017-10-04T03:12:39.817Z,60.20
2017-10-04T03:15:07.286Z,59.80
2017-10-04T03:17:34.750Z,59.40
2017-10-04T03:20:02.977Z,60.00
2017-10-04T03:22:30.470Z,59.90
2017-10-04T03:24:57.936Z,60.00
2017-10-04T03:27:25.402Z,60.20
2017-10-04T03:29:52.874Z,60.40
2017-10-04T03:32:20.330Z,60.30
2017-10-04T03:34:47.777Z,60.60
2017-10-04T03:37:15.247Z,60.40
2017-10-04T03:39:42.700Z,60.20
2017-10-04T03:42:10.158Z,60.10
2017-10-04T03:44:37.609Z,60.40
2017-10-04T03:47:05.057Z,60.90
2017-10-04T03:49:33.290Z,61.10
2017-10-04T03:52:00.750Z,61.00
2017-10-04T03:54:28.206Z,60.60
2017-10-04T03:56:55.687Z,60.20
2017-10-04T03:59:23.174Z,60.00
2017-10-04T04:01:50.633Z,60.50
2017-10-04T04:04:18.081Z,60.30
2017-10-04T04:06:45.553Z,60.20
2017-10-04T04:09:13.797Z,60.50
2017-10-04T04:11:41.267Z,60.50
2017-10-04T04:14:08.722Z,60.50
2017-10-04T04:16:36.959Z,61.20
2017-10-04T04:19:04.414Z,61.20
2017-10-04T04:21:31.874Z,61.20
2017-10-04T04:23:59.345Z,60.50
2017-10-04T04:26:26.797Z,61.20
2017-10-04T04:28:54.277Z,60.00
2017-10-04T04:31:24.963Z,60.40
2017-10-04T04:33:52.428Z,60.60
2017-10-04T04:39:10.737Z,60.50
2017-10-04T04:41:38.965Z,60.10
2017-10-04T04:44:07.202Z,60.20
2017-10-04T04:46:34.670Z,60.20
2017-10-04T04:49:02.126Z,60.20
2017-10-04T04:51:30.357Z,60.30
2017-10-04T04:53:57.829Z,60.20
2017-10-04T04:56:25.290Z,60.20
2017-10-04T04:58:52.750Z,60.00
2017-10-04T05:01:20.185Z,59.90
2017-10-04T05:03:47.641Z,60.30
2017-10-04T05:06:15.109Z,59.80
2017-10-04T05:08:42.567Z,60.10
2017-10-04T05:11:10.038Z,60.00
2017-10-04T05:13:38.273Z,59.80
2017-10-04T05:16:05.732Z,59.80
2017-10-04T05:18:33.193Z,60.20
2017-10-04T05:21:00.653Z,60.40
2017-10-04T05:23:28.106Z,60.50
2017-10-04T05:25:55.577Z,60.30
2017-10-04T05:28:23.035Z,60.10
2017-10-04T05:30:50.507Z,60.10
2017-10-04T05:33:17.938Z,59.60
2017-10-04T05:35:45.391Z,59.50
2017-10-04T05:38:12.849Z,59.90
2017-10-04T05:40:40.293Z,60.50
2017-10-04T05:43:07.746Z,60.10
2017-10-04T05:45:35.200Z,60.10
2017-10-04T05:48:02.674Z,59.60
2017-10-04T05:50:30.125Z,59.80
2017-10-04T05:52:58.349Z,60.10
2017-10-04T05:55:26.566Z,60.30
2017-10-04T05:57:54.801Z,60.30
2017-10-04T06:00:23.023Z,60.00
2017-10-04T06:02:50.491Z,60.00
2017-10-04T06:05:17.937Z,60.40
2017-10-04T06:07:45.410Z,60.30
2017-10-04T06:10:13.629Z,59.80
2017-10-04T06:12:41.088Z,59.80
2017-10-04T06:15:08.537Z,59.60
2017-10-04T06:17:36.006Z,59.40
2017-10-04T06:20:03.459Z,59.30
2017-10-04T06:22:31.683Z,59.80
2017-10-04T06:24:59.146Z,59.80
2017-10-04T06:27:26.601Z,59.40
2017-10-04T06:29:54.832Z,59.20
2017-10-04T06:32:22.297Z,59.20
2017-10-04T06:34:49.760Z,59.10
2017-10-04T06:37:17.975Z,58.50
2017-10-04T06:39:45.434Z,58.50
2017-10-04T06:42:12.886Z,59.00
2017-10-04T06:44:40.330Z,59.00
2017-10-04T06:47:07.809Z,59.30
2017-10-04T06:49:35.265Z,59.20
2017-10-04T06:52:02.722Z,58.90
2017-10-04T06:54:30.186Z,58.40
2017-10-04T06:56:58.403Z,58.30
2017-10-04T06:59:26.617Z,58.40
2017-10-04T07:01:54.075Z,58.40
2017-10-04T07:04:21.530Z,58.50
2017-10-04T07:06:48.979Z,58.20
2017-10-04T07:09:16.453Z,58.20
2017-10-04T07:11:43.903Z,58.30
2017-10-04T07:14:11.373Z,58.20
2017-10-04T07:16:38.830Z,58.60
2017-10-04T07:19:06.274Z,58.50
2017-10-04T07:21:34.511Z,58.20
2017-10-04T07:24:01.974Z,58.20
2017-10-04T07:26:29.450Z,57.90
2017-10-04T07:28:56.915Z,57.80
2017-10-04T07:31:24.388Z,57.70
2017-10-04T07:33:51.845Z,57.30
2017-10-04T07:36:19.301Z,57.40
2017-10-04T07:38:46.758Z,57.30
2017-10-04T07:41:14.214Z,57.30
2017-10-04T07:43:41.670Z,57.30
2017-10-04T07:46:09.138Z,57.60
2017-10-04T07:48:36.586Z,57.40
2017-10-04T07:51:04.079Z,57.10
2017-10-04T07:53:31.534Z,57.00
2017-10-04T07:55:59.010Z,57.00
2017-10-04T07:58:27.221Z,57.60
2017-10-04T08:00:54.685Z,57.70
2017-10-04T08:03:22.679Z,57.70
2017-10-04T08:05:50.121Z,57.50
2017-10-04T08:08:18.356Z,57.60
2017-10-04T08:10:45.831Z,57.60
2017-10-04T08:13:14.085Z,57.60
2017-10-04T08:15:42.306Z,57.40
2017-10-04T08:18:09.762Z,57.20
2017-10-04T08:20:37.217Z,57.10
2017-10-04T08:25:40.123Z,57.70
2017-10-04T08:28:07.590Z,57.70
2017-10-04T08:30:35.050Z,57.40
2017-10-04T08:33:03.294Z,57.00
2017-10-04T08:35:30.755Z,56.90
2017-10-04T08:37:58.222Z,56.80
2017-10-04T08:40:25.696Z,56.90
2017-10-04T08:42:53.153Z,56.90
2017-10-04T08:45:20.613Z,56.80
2017-10-04T08:47:55.577Z,56.70
2017-10-04T08:50:23.828Z,56.80
2017-10-04T08:52:52.070Z,56.80
2017-10-04T08:55:19.510Z,56.80
2017-10-04T08:57:46.973Z,56.80
2017-10-04T09:00:14.434Z,56.60
2017-10-04T09:02:42.650Z,55.80
2017-10-04T09:08:20.221Z,54.70
2017-10-04T09:10:47.681Z,55.10
2017-10-04T09:13:15.163Z,54.50
2017-10-04T09:15:42.618Z,54.80
2017-10-04T09:18:10.073Z,54.70
2017-10-04T09:20:37.546Z,54.00
2017-10-04T09:23:05.004Z,54.10
2017-10-04T09:25:32.469Z,53.40
2017-10-04T09:28:01.445Z,52.80
2017-10-04T09:30:29.669Z,52.90
2017-10-04T09:32:57.112Z,52.90
2017-10-04T09:35:24.590Z,52.00
2017-10-04T09:37:52.050Z,51.70
2017-10-04T09:40:20.273Z,52.10
2017-10-04T09:42:47.730Z,52.10
2017-10-04T09:45:15.985Z,52.80
2017-10-04T09:47:44.202Z,52.30
2017-10-04T09:50:11.831Z,52.30
2017-10-04T09:52:39.280Z,51.60
2017-10-04T09:55:06.757Z,51.00
2017-10-04T09:57:34.244Z,50.60
2017-10-04T10:00:02.474Z,50.20
2017-10-04T10:02:30.693Z,50.30
2017-10-04T10:04:58.918Z,49.70
2017-10-04T10:07:26.378Z,49.60
2017-10-04T10:09:53.865Z,49.90
2017-10-04T10:12:21.305Z,50.00
2017-10-04T10:14:48.769Z,50.20
2017-10-04T10:17:16.246Z,50.60
2017-10-04T10:19:44.473Z,50.60
2017-10-04T10:22:11.933Z,50.50
2017-10-04T10:24:39.390Z,50.90
2017-10-04T10:27:06.870Z,51.00
2017-10-04T10:29:34.322Z,50.70
2017-10-04T10:32:01.798Z,51.30
2017-10-04T10:34:29.253Z,51.10
2017-10-04T10:36:56.801Z,51.10
2017-10-04T10:39:24.254Z,51.50
2017-10-04T10:41:52.477Z,51.40
2017-10-04T10:44:20.701Z,51.40
2017-10-04T10:46:48.154Z,51.30
2017-10-04T10:49:15.604Z,51.60
2017-10-04T10:51:43.081Z,51.70
2017-10-04T10:54:10.542Z,51.90
2017-10-04T10:56:37.994Z,51.90
2017-10-04T10:59:06.221Z,51.40
2017-10-04T11:01:33.674Z,51.40
2017-10-04T11:04:01.908Z,51.20
2017-10-04T11:06:29.366Z,51.20
2017-10-04T11:08:56.826Z,51.30
2017-10-04T11:11:24.285Z,50.90
2017-10-04T11:13:52.543Z,50.90
2017-10-04T11:16:19.990Z,50.80
2017-10-04T11:18:48.213Z,51.00
2017-10-04T11:21:16.434Z,51.10
2017-10-04T11:23:43.903Z,51.00
2017-10-04T11:26:12.133Z,51.00
2017-10-04T11:28:40.355Z,51.10
2017-10-04T11:31:07.805Z,51.10
2017-10-04T11:33:35.255Z,51.00
2017-10-04T11:36:02.716Z,50.80
2017-10-04T11:38:30.166Z,50.80
2017-10-04T11:40:57.629Z,50.90
2017-10-04T11:43:25.081Z,50.90
2017-10-04T11:45:52.548Z,51.00
2017-10-04T11:48:20.763Z,50.80
2017-10-04T11:50:48.211Z,50.80
2017-10-04T11:53:15.704Z,50.60
2017-10-04T11:55:43.920Z,50.40
2017-10-04T11:58:11.372Z,50.40
2017-10-04T12:00:38.834Z,50.50
2017-10-04T12:03:06.290Z,50.50
2017-10-04T12:05:33.759Z,50.50
2017-10-04T12:08:01.214Z,50.50
2017-10-04T12:10:28.684Z,50.60
2017-10-04T12:12:56.141Z,50.40
2017-10-04T12:15:23.581Z,50.60
2017-10-04T12:17:51.041Z,50.60
2017-10-04T12:20:19.249Z,50.40
2017-10-04T12:22:47.483Z,50.40
2017-10-04T12:25:14.935Z,50.40
2017-10-04T12:27:42.399Z,50.50
2017-10-04T12:30:09.853Z,50.20
2017-10-04T12:32:37.314Z,50.30
2017-10-04T12:35:04.785Z,50.20
2017-10-04T12:37:32.237Z,50.50
2017-10-04T12:40:00.451Z,50.30
2017-10-04T12:42:28.668Z,50.20
2017-10-04T12:44:56.881Z,50.30
2017-10-04T12:47:24.332Z,50.30
2017-10-04T12:49:51.785Z,50.40
2017-10-04T12:52:20.062Z,50.70
2017-10-04T12:54:47.518Z,50.70
2017-10-04T12:57:14.982Z,50.70
2017-10-04T12:59:42.438Z,50.70
2017-10-04T13:02:09.886Z,50.60
2017-10-04T13:04:37.337Z,50.80
2017-10-04T13:07:04.810Z,50.60
2017-10-04T13:09:33.025Z,50.80
2017-10-04T13:12:00.506Z,50.70
2017-10-04T13:14:27.946Z,50.70
2017-10-04T13:16:55.425Z,50.70
2017-10-04T13:19:22.884Z,50.50
2017-10-04T13:21:50.324Z,50.50
2017-10-04T13:24:17.804Z,50.50
2017-10-04T13:26:45.260Z,50.60
2017-10-04T13:29:12.729Z,50.50
2017-10-04T13:31:40.941Z,50.30
2017-10-04T13:34:09.190Z,50.40
2017-10-04T13:36:36.649Z,50.40
2017-10-04T13:39:04.880Z,50.40
2017-10-04T13:41:32.328Z,50.40
2017-10-04T13:43:59.819Z,49.90
2017-10-04T13:46:27.263Z,50.20
2017-10-04T13:48:54.738Z,50.10
2017-10-04T13:51:22.217Z,50.10
2017-10-04T13:53:50.450Z,50.30
2017-10-04T13:56:17.924Z,50.30
2017-10-04T13:58:45.385Z,50.10
2017-10-04T14:01:12.859Z,50.00
2017-10-04T14:03:40.401Z,50.10
2017-10-04T14:06:08.609Z,49.50
2017-10-04T14:08:36.823Z,49.40
2017-10-04T14:11:04.297Z,49.40
2017-10-04T14:13:31.760Z,49.10
2017-10-04T14:15:59.236Z,48.90
2017-10-04T14:18:26.693Z,48.90
2017-10-04T14:20:54.166Z,48.80
2017-10-04T14:23:22.377Z,48.90
2017-10-04T14:25:50.620Z,48.90
2017-10-04T14:28:18.061Z,48.80
2017-10-04T14:30:45.521Z,48.60
2017-10-04T14:33:12.989Z,48.50
2017-10-04T14:35:40.449Z,48.70
2017-10-04T14:38:07.907Z,48.70
2017-10-04T14:40:35.362Z,48.40
2017-10-04T14:43:02.817Z,48.50
2017-10-04T14:45:30.273Z,48.20
2017-10-04T14:47:57.737Z,48.00
2017-10-04T14:50:25.182Z,48.10
2017-10-04T14:52:52.641Z,48.30
2017-10-04T14:55:20.107Z,48.20
2017-10-04T14:57:47.565Z,48.20
2017-10-04T15:00:15.033Z,48.00
2017-10-04T15:02:42.498Z,48.40
2017-10-04T15:05:10.709Z,48.50
2017-10-04T15:07:38.161Z,48.50
2017-10-04T15:10:05.615Z,49.00
2017-10-04T15:12:33.842Z,48.20
2017-10-04T15:15:01.301Z,48.20
2017-10-04T15:17:28.755Z,48.30
2017-10-04T15:19:56.212Z,48.30
2017-10-04T15:22:23.678Z,48.40
2017-10-04T15:24:51.902Z,48.50
2017-10-04T15:27:19.355Z,48.40
2017-10-04T15:29:46.809Z,48.60
2017-10-04T15:32:14.269Z,48.60
2017-10-04T15:34:41.723Z,48.90
2017-10-04T15:37:09.181Z,49.20
2017-10-04T15:39:37.405Z,49.20
2017-10-04T15:42:04.879Z,49.10
2017-10-04T15:44:32.321Z,49.10
2017-10-04T15:46:59.806Z,48.90
2017-10-04T15:49:28.032Z,49.50
2017-10-04T15:51:55.477Z,49.50
2017-10-04T15:54:23.707Z,49.70
2017-10-04T15:56:51.920Z,49.80
2017-10-04T15:59:19.381Z,49.80
2017-10-04T16:01:46.846Z,49.90
2017-10-04T16:04:14.307Z,50.70
2017-10-04T16:06:41.755Z,50.20
2017-10-04T16:09:09.210Z,50.00
2017-10-04T16:11:37.430Z,50.20
2017-10-04T16:14:04.887Z,50.20
2017-10-04T16:16:32.329Z,50.90
2017-10-04T16:18:59.782Z,51.30
2017-10-04T16:21:27.226Z,51.70
2017-10-04T16:23:54.702Z,52.20
2017-10-04T16:26:22.155Z,52.50
2017-10-04T16:28:49.613Z,52.80
2017-10-04T16:31:17.062Z,53.00
2017-10-04T16:33:44.526Z,53.40
2017-10-04T16:36:11.983Z,53.70
2017-10-04T16:38:39.441Z,53.90
2017-10-04T16:41:06.893Z,54.20
2017-10-04T16:43:34.361Z,54.20
2017-10-04T16:46:01.820Z,54.10
2017-10-04T16:48:29.275Z,54.20
2017-10-04T16:50:56.722Z,54.20
2017-10-04T16:53:24.190Z,54.10
2017-10-04T16:55:52.420Z,54.20
2017-10-04T16:58:19.882Z,54.20
2017-10-04T17:00:47.345Z,54.20
2017-10-04T17:03:15.569Z,53.80
2017-10-04T17:05:43.790Z,53.80
2017-10-04T17:08:11.591Z,53.80
2017-10-04T17:10:39.047Z,53.90
2017-10-04T17:13:07.998Z,53.90
2017-10-04T17:15:35.456Z,53.90
2017-10-04T17:18:02.910Z,53.80
2017-10-04T17:20:30.367Z,53.80
2017-10-04T17:22:57.813Z,53.90
2017-10-04T17:25:26.054Z,54.10
2017-10-04T17:27:53.497Z,54.00
2017-10-04T17:30:20.945Z,54.20
2017-10-04T17:32:48.406Z,54.10
2017-10-04T17:35:16.617Z,54.10
2017-10-04T17:37:44.849Z,54.30
2017-10-04T17:40:12.297Z,54.30
2017-10-04T17:42:39.778Z,54.00
2017-10-04T17:45:07.250Z,54.20
2017-10-04T17:47:34.708Z,54.60
2017-10-04T17:50:02.159Z,54.60
2017-10-04T17:52:29.605Z,54.30
2017-10-04T17:54:57.057Z,54.30
2017-10-04T17:57:26.036Z,55.00
2017-10-04T17:59:55.311Z,56.30
2017-10-04T18:02:22.906Z,56.10
2017-10-04T18:04:50.345Z,55.50
2017-10-04T18:07:17.873Z,55.20
2017-10-04T18:09:46.279Z,54.80
2017-10-04T18:12:13.747Z,54.70
2017-10-04T18:14:41.958Z,54.40
2017-10-04T18:17:09.401Z,54.40
2017-10-04T18:19:36.857Z,54.20
2017-10-04T18:22:04.335Z,54.10
2017-10-04T18:24:32.565Z,54.10
2017-10-04T18:27:00.020Z,54.00
2017-10-04T18:29:27.473Z,54.10
2017-10-04T18:31:54.932Z,54.00
2017-10-04T18:34:22.390Z,54.00
2017-10-04T18:36:49.846Z,54.00
2017-10-04T18:39:17.305Z,53.90
2017-10-04T18:41:44.755Z,53.90
2017-10-04T18:44:12.214Z,53.90
2017-10-04T18:46:39.670Z,54.00
2017-10-04T18:49:07.912Z,54.00
2017-10-04T18:51:36.154Z,54.10
2017-10-04T18:54:03.606Z,54.00
2017-10-04T18:56:31.049Z,54.00
2017-10-04T18:58:58.516Z,54.00
2017-10-04T19:01:25.966Z,54.00
2017-10-04T19:03:53.417Z,54.00
2017-10-04T19:06:20.866Z,54.10
2017-10-04T19:08:48.334Z,54.10
2017-10-04T19:11:15.786Z,54.20
2017-10-04T19:13:43.237Z,54.30
2017-10-04T19:16:10.698Z,54.20
2017-10-04T19:18:38.152Z,54.10
2017-10-04T19:21:05.609Z,54.20
2017-10-04T19:23:33.075Z,54.30
2017-10-04T19:26:00.521Z,54.30
2017-10-04T19:28:28.773Z,54.40
2017-10-04T19:30:56.247Z,54.40
2017-10-04T19:33:23.694Z,54.30
2017-10-04T19:35:51.155Z,54.30
2017-10-04T19:38:18.602Z,54.10
2017-10-04T19:40:46.061Z,54.40
2017-10-04T19:43:13.513Z,54.40
2017-10-04T19:45:41.730Z,54.40
2017-10-04T19:48:09.182Z,54.40
2017-10-04T19:50:36.637Z,54.50
2017-10-04T19:53:04.089Z,54.50
2017-10-04T19:55:31.567Z,54.50
2017-10-04T19:57:59.023Z,54.60
2017-10-04T20:00:26.481Z,54.70
2017-10-04T20:02:53.945Z,54.60
2017-10-04T20:05:21.407Z,54.70
2017-10-04T20:07:48.983Z,54.60
2017-10-04T20:10:16.502Z,54.60
2017-10-04T20:12:43.958Z,54.60
2017-10-04T20:15:12.181Z,54.60
2017-10-04T20:17:40.402Z,54.80
2017-10-04T20:20:07.858Z,54.70
2017-10-04T20:22:36.310Z,54.90
2017-10-04T20:25:04.829Z,54.90
2017-10-04T20:27:32.290Z,54.80
2017-10-04T20:29:59.739Z,54.80
2017-10-04T20:32:27.364Z,54.80
2017-10-04T20:34:55.793Z,54.80
2017-10-04T20:37:24.186Z,54.90
2017-10-04T20:39:51.638Z,54.80
2017-10-04T20:42:19.098Z,54.80
2017-10-04T20:44:46.561Z,54.80
2017-10-04T20:47:14.122Z,54.80
2017-10-04T20:49:41.570Z,54.80
2017-10-04T20:52:09.030Z,54.90
2017-10-04T20:54:36.481Z,54.80
2017-10-04T20:57:03.934Z,54.90
2017-10-04T20:59:32.172Z,55.00
2017-10-04T21:01:59.605Z,55.00
2017-10-04T21:04:27.825Z,55.10
2017-10-04T21:06:55.269Z,55.10
2017-10-04T21:09:24.423Z,55.10
2017-10-04T21:11:51.905Z,55.10
2017-10-04T21:14:19.351Z,55.10
2017-10-04T21:16:47.585Z,55.20
2017-10-04T21:19:15.042Z,55.20
2017-10-04T21:21:42.494Z,55.10
2017-10-04T21:24:09.963Z,55.00
2017-10-04T21:26:37.410Z,55.10
2017-10-04T21:29:05.638Z,55.10
2017-10-04T21:31:33.862Z,55.20
2017-10-04T21:34:01.321Z,55.20
2017-10-04T21:36:28.763Z,55.20
2017-10-04T21:38:56.217Z,55.30
2017-10-04T21:41:23.670Z,55.30
2017-10-04T21:43:51.142Z,55.30
2017-10-04T21:46:18.605Z,55.20
2017-10-04T21:48:46.811Z,55.20
2017-10-04T21:51:14.275Z,55.10
2017-10-04T21:53:41.709Z,55.10
2017-10-04T21:56:09.162Z,55.10
2017-10-04T21:58:36.614Z,55.20
2017-10-04T22:01:04.077Z,55.30
2017-10-04T22:03:31.556Z,55.40
2017-10-04T22:05:59.022Z,55.40
2017-10-04T22:08:26.467Z,55.30
2017-10-04T22:10:53.917Z,55.50
2017-10-04T22:13:21.397Z,55.40
2017-10-04T22:15:49.629Z,55.40
2017-10-04T22:18:17.093Z,56.00
2017-10-04T22:20:44.553Z,55.40
2017-10-04T22:23:12.773Z,55.30
2017-10-04T22:25:41.018Z,55.40
2017-10-04T22:28:08.458Z,55.40
2017-10-04T22:30:35.917Z,55.50
2017-10-04T22:33:04.125Z,55.50
2017-10-04T22:35:31.621Z,55.50
2017-10-04T22:37:59.066Z,55.50
2017-10-04T22:40:27.305Z,55.50
2017-10-04T22:42:54.781Z,55.50
2017-10-04T22:45:23.009Z,55.50
2017-10-04T22:47:50.466Z,55.10
2017-10-04T22:50:17.917Z,55.60
2017-10-04T22:52:45.386Z,55.70
2017-10-04T22:55:12.862Z,55.80
2017-10-04T22:57:41.152Z,55.80
2017-10-04T23:00:08.602Z,55.80
2017-10-04T23:02:36.060Z,55.70
2017-10-04T23:05:03.502Z,55.80
2017-10-04T23:07:30.966Z,55.70
2017-10-04T23:09:58.433Z,55.80
2017-10-04T23:12:25.883Z,55.60
2017-10-04T23:14:53.325Z,55.60
2017-10-04T23:17:20.782Z,55.70
2017-10-04T23:19:48.241Z,55.80
2017-10-04T23:22:15.722Z,55.80
2017-10-04T23:24:43.221Z,55.90
2017-10-04T23:27:10.673Z,55.90
2017-10-04T23:29:38.129Z,55.90
2017-10-04T23:32:05.604Z,56.00
2017-10-04T23:34:33.806Z,56.20
2017-10-04T23:37:01.270Z,56.10
2017-10-04T23:39:28.733Z,56.10
2017-10-04T23:41:56.206Z,56.10
2017-10-04T23:44:24.453Z,56.10
2017-10-04T23:46:51.906Z,56.10
2017-10-04T23:49:19.361Z,56.00
2017-10-04T23:51:46.841Z,56.00
2017-10-04T23:54:14.285Z,55.90
2017-10-04T23:56:41.738Z,55.90
2017-10-04T23:59:09.193Z,56.00
